Time;durP1;ratioP1;P1;durP2;ratioP2;P2;SDS_P1;SDS_P2;PMS_P1;PMS_P2;Temp;Humidity;BMP_temperature;BMP_pressure;BME280_temperature;BME280_humidity;BME280_pressure;Samples;Min_cycle;Max_cycle;Signal;HPM_P1;HPM_P2
2023/06/05 00:00:14;;;;;;;4.80;1.70;;;;;;;10.89;59.01;97161.97;109563;1266;22592;-85
2023/06/05 00:03:06;;;;;;;3.00;2.10;;;;;;;10.70;59.36;97162.30;109510;1269;22502;-85
2023/06/05 00:05:39;;;;;;;2.20;1.70;;;;;;;10.57;59.73;97161.71;109488;1259;89031;-85
2023/06/05 00:08:10;;;;;;;2.70;1.70;;;;;;;10.52;59.94;97159.84;109578;1269;22522;-85
2023/06/05 00:10:42;;;;;;;4.90;2.10;;;;;;;10.65;59.90;97162.88;109543;1263;25339;-84
2023/06/05 00:13:13;;;;;;;3.10;1.80;;;;;;;10.81;59.75;97158.20;109544;1269;22504;-85
2023/06/05 00:15:45;;;;;;;3.90;1.80;;;;;;;10.96;59.52;97156.14;109484;1266;70499;-85
2023/06/05 00:18:18;;;;;;;2.80;1.40;;;;;;;11.10;59.25;97157.55;109570;1269;22598;-85
2023/06/05 00:20:51;;;;;;;2.00;1.40;;;;;;;11.28;59.19;97155.19;109582;1269;25411;-86
2023/06/05 00:23:22;;;;;;;4.20;1.80;;;;;;;11.38;59.01;97154.36;109606;1263;22505;-85
2023/06/05 00:25:54;;;;;;;4.10;2.00;;;;;;;11.26;58.94;97156.41;109578;1269;53301;-85
2023/06/05 00:28:26;;;;;;;4.20;2.00;;;;;;;10.99;59.22;97157.98;109600;1269;22501;-85
2023/06/05 00:30:58;;;;;;;2.50;1.70;;;;;;;10.77;59.42;97158.42;109567;1269;23785;-84
2023/06/05 00:33:30;;;;;;;3.50;2.10;;;;;;;10.67;59.82;97160.70;109548;1269;22510;-85
2023/06/05 00:36:02;;;;;;;4.10;1.70;;;;;;;10.72;59.95;97156.09;109537;1269;44654;-84
2023/06/05 00:38:33;;;;;;;3.00;1.70;;;;;;;10.82;59.90;97151.79;109555;1263;22602;-85
2023/06/05 00:41:04;;;;;;;3.90;1.90;;;;;;;10.90;59.82;97149.30;109526;1266;22501;-85
2023/06/05 00:43:37;;;;;;;2.70;1.60;;;;;;;10.99;59.67;97150.67;109538;1263;22519;-85
2023/06/05 00:46:10;;;;;;;3.20;1.90;;;;;;;11.04;59.43;97145.99;109485;1269;46315;-85
2023/06/05 00:48:42;;;;;;;4.20;1.80;;;;;;;11.05;59.52;97146.41;109569;1269;22547;-85
2023/06/05 00:51:15;;;;;;;2.60;1.70;;;;;;;10.89;59.67;97144.31;109500;1269;22519;-85
2023/06/05 00:53:48;;;;;;;2.60;1.60;;;;;;;10.60;60.06;97148.13;109569;1266;22517;-85
2023/06/05 00:56:22;;;;;;;3.60;1.60;;;;;;;10.32;60.53;97147.41;109511;1269;64903;-85
2023/06/05 00:58:58;;;;;;;3.00;1.70;;;;;;;10.13;61.05;97147.19;109506;1269;25227;-85
2023/06/05 01:01:29;;;;;;;4.40;1.90;;;;;;;10.20;61.30;97148.33;109526;1268;22553;-85
2023/06/05 01:04:01;;;;;;;3.00;1.90;;;;;;;10.36;61.22;97149.17;109501;1262;22507;-85
2023/06/05 01:06:35;;;;;;;3.50;2.00;;;;;;;10.49;61.13;97148.66;109495;1269;58777;-85
2023/06/05 01:09:08;;;;;;;2.10;1.50;;;;;;;10.59;60.91;97148.94;109563;1269;22952;-85
2023/06/05 01:11:44;;;;;;;2.40;1.50;;;;;;;10.69;60.86;97144.41;109542;1263;22532;-84
2023/06/05 01:14:22;;;;;;;3.60;2.00;;;;;;;10.75;60.71;97142.30;109497;1269;22515;-85
2023/06/05 01:16:54;;;;;;;2.90;1.80;;;;;;;10.74;60.76;97140.14;109480;1267;78863;-85
2023/06/05 01:19:28;;;;;;;2.90;1.80;;;;;;;10.62;60.75;97139.97;109322;1269;22516;-85
2023/06/05 01:22:00;;;;;;;2.60;1.70;;;;;;;10.49;61.01;97141.71;109522;1266;22659;-84
2023/06/05 01:24:32;;;;;;;4.40;1.70;;;;;;;10.33;61.20;97137.40;109570;1269;22520;-85
2023/06/05 01:27:25;;;;;;;2.60;1.80;;;;;;;10.13;61.63;97136.80;109473;1266;56707;-85
2023/06/05 01:30:05;;;;;;;2.90;2.00;;;;;;;10.10;61.82;97140.29;109534;1252;22504;-84
2023/06/05 01:32:44;;;;;;;4.10;2.50;;;;;;;10.22;61.73;97141.61;109524;1266;25437;-84
2023/06/05 01:35:16;;;;;;;4.80;2.10;;;;;;;10.39;61.53;97140.96;109573;1269;25236;-85
2023/06/05 01:37:51;;;;;;;3.50;1.90;;;;;;;10.56;61.51;97140.65;109503;1269;65540;-85
2023/06/05 01:40:25;;;;;;;4.00;2.10;;;;;;;10.71;61.26;97143.95;109557;1269;22523;-84
2023/06/05 01:42:59;;;;;;;3.00;2.00;;;;;;;10.74;61.18;97144.96;109547;1269;22524;-85
2023/06/05 01:45:31;;;;;;;2.90;1.80;;;;;;;10.61;61.17;97141.45;109507;1269;55736;-85
2023/06/05 01:48:03;;;;;;;3.70;1.80;;;;;;;10.51;61.33;97140.33;109531;1269;22557;-85
2023/06/05 01:50:37;;;;;;;3.60;2.00;;;;;;;10.44;61.31;97137.90;109505;1269;22606;-85
2023/06/05 01:53:10;;;;;;;4.80;2.20;;;;;;;10.47;61.42;97135.56;109540;1269;23983;-85
2023/06/05 01:55:44;;;;;;;3.80;2.20;;;;;;;10.53;61.35;97136.35;109506;1269;56382;-84
2023/06/05 01:58:16;;;;;;;4.00;2.00;;;;;;;10.41;61.52;97136.56;109504;1269;22612;-84
2023/06/05 02:00:47;;;;;;;2.50;2.00;;;;;;;10.23;61.84;97136.90;109532;1263;22519;-85
2023/06/05 02:03:19;;;;;;;2.90;2.10;;;;;;;10.09;62.28;97136.36;109524;1263;22534;-85
2023/06/05 02:05:51;;;;;;;3.10;2.00;;;;;;;10.13;62.26;97135.31;109504;1266;58307;-84
2023/06/05 02:08:22;;;;;;;4.50;2.50;;;;;;;10.27;62.19;97133.15;109483;1269;24216;-85
2023/06/05 02:10:54;;;;;;;2.80;1.90;;;;;;;10.39;62.01;97134.39;109535;1266;22556;-85
2023/06/05 02:13:27;;;;;;;3.70;2.10;;;;;;;10.48;61.90;97135.30;109525;1269;22511;-85
2023/06/05 02:16:00;;;;;;;2.80;2.00;;;;;;;10.36;61.72;97135.13;109502;1269;53799;-85
2023/06/05 02:18:32;;;;;;;4.50;1.90;;;;;;;10.09;62.05;97133.08;109560;1266;22539;-85
2023/06/05 02:21:03;;;;;;;3.30;2.10;;;;;;;9.95;62.36;97133.05;109522;1266;22505;-85
2023/06/05 02:23:35;;;;;;;4.50;2.40;;;;;;;9.94;62.59;97135.85;109509;1269;22552;-85
2023/06/05 02:26:07;;;;;;;2.80;2.10;;;;;;;10.05;62.62;97138.27;109429;1265;79541;-85
2023/06/05 02:28:39;;;;;;;3.30;2.30;;;;;;;10.19;62.42;97138.63;109540;1269;22521;-85
2023/06/05 02:31:16;;;;;;;3.70;2.00;;;;;;;10.30;62.40;97140.37;109541;1269;22559;-85
2023/06/05 02:33:47;;;;;;;3.80;2.00;;;;;;;10.45;62.34;97136.89;109485;1266;22514;-84
2023/06/05 02:36:20;;;;;;;2.90;2.10;;;;;;;10.56;62.21;97138.27;109416;1269;130492;-85
2023/06/05 02:38:55;;;;;;;3.50;2.10;;;;;;;10.56;62.07;97137.85;109527;1269;22517;-85
2023/06/05 02:41:26;;;;;;;3.80;2.30;;;;;;;10.58;62.02;97132.02;109527;1269;25220;-85
2023/06/05 02:43:59;;;;;;;4.60;2.00;;;;;;;10.63;61.85;97133.34;109517;1269;22505;-85
2023/06/05 02:46:30;;;;;;;5.70;2.30;;;;;;;10.68;61.76;97129.73;109467;1269;69168;-85
2023/06/05 02:49:02;;;;;;;3.20;2.20;;;;;;;10.59;61.51;97134.35;109558;1269;22512;-85
2023/06/05 02:51:33;;;;;;;2.10;1.80;;;;;;;10.57;61.68;97132.02;109550;1266;22980;-85
2023/06/05 02:54:06;;;;;;;4.40;2.20;;;;;;;10.62;61.75;97132.86;109527;1269;22504;-85
2023/06/05 02:56:37;;;;;;;3.60;2.40;;;;;;;10.67;61.50;97135.77;109474;1269;46262;-85
2023/06/05 02:59:09;;;;;;;2.90;2.10;;;;;;;10.75;61.56;97133.45;109544;1264;25404;-84
2023/06/05 03:01:47;;;;;;;4.20;2.50;;;;;;;10.85;61.37;97135.77;109545;1251;22540;-85
2023/06/05 03:04:20;;;;;;;4.90;2.40;;;;;;;10.91;61.30;97138.48;109483;1269;22627;-85
2023/06/05 03:06:53;;;;;;;4.20;2.10;;;;;;;10.93;61.36;97139.84;109492;1269;80325;-85
2023/06/05 03:09:24;;;;;;;5.10;2.60;;;;;;;10.98;61.21;97140.77;109529;1269;23806;-85
2023/06/05 03:11:56;;;;;;;2.60;2.00;;;;;;;11.02;61.16;97139.15;109544;1269;22566;-86
2023/06/05 03:14:27;;;;;;;2.50;1.80;;;;;;;11.05;61.18;97138.23;109566;1269;22510;-84
2023/06/05 03:17:00;;;;;;;3.40;2.30;;;;;;;11.10;61.31;97138.48;109425;1269;84209;-85
2023/06/05 03:19:31;;;;;;;3.80;2.10;;;;;;;11.14;61.14;97138.77;109546;1266;22667;-85
2023/06/05 03:22:03;;;;;;;3.30;2.40;;;;;;;11.17;61.18;97141.58;109529;1262;24202;-85
2023/06/05 03:24:37;;;;;;;5.60;2.40;;;;;;;11.15;61.12;97140.14;109459;1269;25297;-85
2023/06/05 03:27:09;;;;;;;3.60;2.20;;;;;;;11.15;61.15;97140.94;109264;1269;48534;-85
2023/06/05 03:29:40;;;;;;;5.10;2.10;;;;;;;11.17;61.16;97136.95;109524;1266;22504;-85
2023/06/05 03:32:11;;;;;;;4.50;2.40;;;;;;;11.24;61.17;97139.75;109556;1266;26482;-85
2023/06/05 03:34:48;;;;;;;3.10;2.40;;;;;;;11.33;61.13;97134.79;109519;1264;22796;-85
2023/06/05 03:37:19;;;;;;;3.30;1.90;;;;;;;11.40;61.08;97131.73;109499;1264;55158;-85
2023/06/05 03:39:53;;;;;;;4.70;2.50;;;;;;;11.31;60.96;97132.04;109493;1269;22516;-85
2023/06/05 03:42:24;;;;;;;4.00;2.20;;;;;;;11.27;61.16;97133.54;109512;1268;22517;-85
2023/06/05 03:44:56;;;;;;;3.70;2.20;;;;;;;11.29;61.45;97133.11;109506;1263;23830;-85
2023/06/05 03:47:28;;;;;;;4.00;2.20;;;;;;;11.38;61.58;97127.98;109446;1269;80270;-85
2023/06/05 03:50:00;;;;;;;3.90;2.00;;;;;;;11.46;61.57;97130.98;109503;1266;22512;-85
2023/06/05 03:52:31;;;;;;;3.40;2.30;;;;;;;11.54;61.57;97132.44;109534;1269;22561;-85
2023/06/05 03:55:04;;;;;;;4.40;2.60;;;;;;;11.62;61.84;97125.82;109554;1266;22509;-85
2023/06/05 03:57:37;;;;;;;2.90;2.00;;;;;;;11.66;61.90;97125.75;109437;1269;110318;-85
2023/06/05 04:00:11;;;;;;;2.80;2.30;;;;;;;11.73;61.91;97121.06;109560;1263;22505;-85
2023/06/05 04:02:43;;;;;;;3.90;2.90;;;;;;;11.82;61.76;97122.38;109520;1266;22587;-85
2023/06/05 04:05:17;;;;;;;3.30;2.20;;;;;;;11.94;61.95;97122.63;109525;1266;22500;-85
2023/06/05 04:07:50;;;;;;;3.60;2.60;;;;;;;12.06;62.02;97120.96;109530;1269;53131;-85
2023/06/05 04:10:24;;;;;;;3.40;2.50;;;;;;;12.15;61.74;97119.70;109529;1269;23849;-85
2023/06/05 04:12:56;;;;;;;3.90;2.30;;;;;;;12.25;61.64;97121.61;109579;1269;22511;-86
2023/06/05 04:15:36;;;;;;;3.60;2.60;;;;;;;12.34;61.78;97125.47;109407;1269;22524;-86
2023/06/05 04:18:08;;;;;;;4.50;2.70;;;;;;;12.44;62.14;97124.88;109533;1269;22517;-85
2023/06/05 04:20:40;;;;;;;3.70;2.50;;;;;;;12.55;62.10;97124.73;109519;1269;24206;-85
2023/06/05 04:23:12;;;;;;;4.10;2.50;;;;;;;12.66;62.01;97125.40;109547;1269;22566;-86
2023/06/05 04:25:45;;;;;;;3.80;2.40;;;;;;;12.73;61.63;97126.30;109534;1263;57313;-86
2023/06/05 04:28:22;;;;;;;4.80;2.80;;;;;;;12.75;61.66;97121.97;109543;1269;23588;-86
2023/06/05 04:31:08;;;;;;;4.50;2.40;;;;;;;12.84;62.39;97122.31;109501;1269;22515;-85
2023/06/05 04:33:41;;;;;;;3.30;2.30;;;;;;;12.98;62.66;97120.33;109496;1269;22511;-86
2023/06/05 04:36:14;;;;;;;4.70;2.40;;;;;;;13.12;62.46;97120.04;109449;1257;93569;-86
2023/06/05 04:38:46;;;;;;;3.90;2.30;;;;;;;13.18;61.81;97120.89;109503;1264;23299;-86
2023/06/05 04:41:17;;;;;;;4.90;2.40;;;;;;;13.23;61.53;97119.05;109536;1269;22521;-86
2023/06/05 04:43:50;;;;;;;4.10;2.50;;;;;;;13.35;61.99;97120.14;109521;1266;22515;-86
2023/06/05 04:46:23;;;;;;;4.00;2.60;;;;;;;13.49;62.24;97121.06;109399;1269;104427;-87
2023/06/05 04:48:57;;;;;;;4.00;2.60;;;;;;;13.59;62.02;97121.57;109326;1269;22554;-87
2023/06/05 04:51:31;;;;;;;4.00;2.60;;;;;;;13.72;62.18;97122.92;109534;1264;22519;-87
2023/06/05 04:54:03;;;;;;;4.20;2.50;;;;;;;13.84;62.26;97122.39;109293;1269;23164;-86
2023/06/05 04:56:36;;;;;;;7.60;2.90;;;;;;;13.96;62.10;97124.43;109501;1264;91625;-86
2023/06/05 04:59:21;;;;;;;;;;;;;;;;;;;;;
2023/06/05 05:01:57;;;;;;;6.00;2.90;;;;;;;14.24;61.76;97126.64;109454;1268;24192;-86
2023/06/05 05:04:35;;;;;;;6.20;2.50;;;;;;;14.41;61.80;97127.48;109563;1269;24093;-88
2023/06/05 05:07:18;;;;;;;4.80;2.60;;;;;;;14.62;61.89;97129.75;108205;1266;1851435;-86
2023/06/05 05:10:05;;;;;;;5.30;2.70;;;;;;;14.89;61.94;97128.30;109507;1269;23708;-86
2023/06/05 05:16:25;;;;;;;4.90;2.90;;;;;;;15.82;60.99;97135.36;109339;1268;130029;-87
2023/06/05 05:20:12;;;;;;;;;;;;;;;;;;;;;
2023/06/05 05:23:26;;;;;;;7.60;2.70;;;;;;;19.91;57.90;97124.86;108830;1275;22512;-87
2023/06/05 06:01:04;;;;;;;;;;;;;;;;;;;;;
2023/06/05 06:19:49;;;;;;;3.40;2.40;;;;;;;32.53;33.02;97126.69;107372;1280;22541;-87
2023/06/05 06:25:39;;;;;;;5.80;2.80;;;;;;;32.67;31.42;97130.61;108467;1276;22517;-85
2023/06/05 06:28:12;;;;;;;5.10;2.50;;;;;;;32.43;31.55;97130.17;108089;1254;1835913;-86
2023/06/05 06:31:12;;;;;;;;;;;;;;;;;;;;;
2023/06/05 06:33:50;;;;;;;4.00;2.10;;;;;;;32.24;31.08;97124.79;109520;1261;22512;-86
2023/06/05 06:36:26;;;;;;;3.60;2.90;;;;;;;32.05;30.71;97124.73;109526;1269;22515;-85
2023/06/05 06:39:34;;;;;;;5.30;2.50;;;;;;;31.73;30.60;97126.27;109488;1269;24238;-85
2023/06/05 06:42:06;;;;;;;;;;;;;;;31.64;30.79;97124.06;109456;1269;25540;-86
2023/06/05 06:44:55;;;;;;;3.80;2.60;;;;;;;31.64;30.96;97123.20;109543;1269;22528;-86
2023/06/05 06:47:34;;;;;;;4.90;2.50;;;;;;;31.55;30.66;97119.66;109234;1264;115888;-86
2023/06/05 06:50:29;;;;;;;4.10;2.50;;;;;;;31.22;30.71;97122.08;109435;1264;26563;-86
2023/06/05 06:53:02;;;;;;;4.00;2.60;;;;;;;30.99;30.99;97122.29;109511;1269;22753;-87
2023/06/05 06:55:36;;;;;;;3.70;2.30;;;;;;;30.84;30.94;97116.34;109558;1265;22659;-86
2023/06/05 06:58:24;;;;;;;5.50;2.40;;;;;;;30.59;30.86;97119.02;109460;1266;129282;-86
2023/06/05 07:01:18;;;;;;;3.50;2.60;;;;;;;30.38;30.84;97121.04;109486;1269;23723;-86
2023/06/05 07:03:57;;;;;;;4.80;2.80;;;;;;;30.16;30.89;97118.13;109497;1264;22559;-86
2023/06/05 07:06:36;;;;;;;5.30;2.80;;;;;;;29.95;30.96;97118.45;109284;1254;23869;-86
2023/06/05 07:09:23;;;;;;;4.20;2.50;;;;;;;29.68;31.12;97117.53;109445;1267;104316;-86
2023/06/05 07:12:27;;;;;;;5.10;2.90;;;;;;;29.41;31.29;97115.77;109422;1266;22557;-86
2023/06/05 07:15:00;;;;;;;4.00;2.40;;;;;;;29.32;31.96;97118.11;109580;1264;22509;-86
2023/06/05 07:17:34;;;;;;;3.70;2.30;;;;;;;29.34;31.85;97125.37;107984;1266;2046813;-86
2023/06/05 07:20:07;;;;;;;3.60;2.60;;;;;;;29.30;31.98;97121.00;109536;1263;25367;-86
2023/06/05 07:22:43;;;;;;;6.50;2.70;;;;;;;29.25;31.84;97120.27;109576;1269;22528;-86
2023/06/05 07:25:16;;;;;;;3.70;2.40;;;;;;;29.14;32.17;97123.23;109325;1254;22514;-86
2023/06/05 07:27:51;;;;;;;3.40;2.70;;;;;;;29.11;32.07;97124.08;108137;1263;1876554;-86
2023/06/05 07:30:24;;;;;;;4.00;2.50;;;;;;;28.76;32.26;97128.55;109489;1264;23477;-86
2023/06/05 07:32:56;;;;;;;6.10;2.80;;;;;;;28.59;32.28;97129.59;109489;1269;23862;-86
2023/06/05 07:35:36;;;;;;;5.00;2.70;;;;;;;28.62;32.82;97128.12;109534;1263;22552;-86
2023/06/05 07:38:15;;;;;;;3.50;2.70;;;;;;;28.46;32.27;97127.80;109493;1269;70410;-86
2023/06/05 07:40:58;;;;;;;5.30;2.20;;;;;;;28.00;31.24;97128.67;109494;1269;25256;-86
2023/06/05 07:43:29;;;;;;;4.40;2.60;;;;;;;27.38;31.74;97122.71;109575;1264;26355;-86
2023/06/05 07:46:00;;;;;;;5.40;2.70;;;;;;;27.30;32.42;97120.61;109566;1269;22631;-86
2023/06/05 07:48:32;;;;;;;4.60;2.50;;;;;;;27.46;32.26;97123.17;109498;1264;59636;-85
2023/06/05 07:51:04;;;;;;;3.80;2.40;;;;;;;27.29;32.02;97122.63;109570;1269;24250;-86
2023/06/05 07:53:36;;;;;;;4.50;2.30;;;;;;;27.22;32.29;97118.29;109515;1263;22545;-85
2023/06/05 07:56:08;;;;;;;4.50;2.70;;;;;;;27.20;32.18;97120.60;109608;1266;25462;-85
2023/06/05 07:58:41;;;;;;;3.60;2.60;;;;;;;26.79;31.78;97118.67;109473;1266;69001;-85
2023/06/05 08:01:15;;;;;;;6.10;2.60;;;;;;;26.59;32.46;97115.87;109577;1266;22533;-87
2023/06/05 08:03:47;;;;;;;3.50;2.40;;;;;;;26.53;32.94;97110.44;109592;1253;22519;-87
2023/06/05 08:06:25;;;;;;;5.00;2.60;;;;;;;26.55;32.45;97112.88;109485;1267;22561;-87
2023/06/05 08:08:59;;;;;;;;;;;;;;;26.15;32.89;97107.96;109476;1263;91647;-87
2023/06/05 08:11:31;;;;;;;3.30;2.40;;;;;;;26.30;32.83;97104.06;109600;1269;25371;-87
2023/06/05 08:14:03;;;;;;;4.70;2.60;;;;;;;26.39;32.90;97109.64;109541;1260;22873;-87
2023/06/05 08:16:37;;;;;;;4.60;2.50;;;;;;;26.61;33.53;97103.45;109572;1262;22563;-87
2023/06/05 08:19:09;;;;;;;4.10;2.70;;;;;;;26.78;32.97;97099.92;109390;1263;197259;-87
2023/06/05 08:21:42;;;;;;;5.70;2.50;;;;;;;26.73;32.99;97102.80;109533;1269;23245;-87
2023/06/05 08:24:16;;;;;;;3.00;2.40;;;;;;;26.63;32.39;97108.52;109562;1263;24209;-87
2023/06/05 08:26:48;;;;;;;5.40;2.50;;;;;;;26.14;32.18;97105.17;109496;1267;22516;-86
2023/06/05 08:29:19;;;;;;;3.10;2.20;;;;;;;25.62;32.51;97104.29;109452;1269;31375;-86
2023/06/05 08:31:51;;;;;;;5.40;2.50;;;;;;;25.50;33.09;97102.55;109605;1266;22690;-86
2023/06/05 08:34:22;;;;;;;3.80;2.30;;;;;;;25.20;32.85;97103.05;109384;1269;22543;-87
2023/06/05 08:36:53;;;;;;;5.30;2.60;;;;;;;25.16;33.64;97105.92;109545;1269;24292;-87
2023/06/05 08:39:29;;;;;;;5.10;2.60;;;;;;;25.24;34.01;97105.53;109242;1268;63701;-87
2023/06/05 08:42:03;;;;;;;4.40;2.30;;;;;;;25.20;33.64;97111.11;109571;1264;22575;-87
2023/06/05 08:44:34;;;;;;;4.20;2.60;;;;;;;24.97;33.83;97112.75;109564;1269;26401;-86
2023/06/05 08:47:08;;;;;;;4.90;2.80;;;;;;;24.72;34.13;97112.75;109493;1247;51844;-87
2023/06/05 08:49:44;;;;;;;4.20;2.60;;;;;;;24.53;34.94;97111.85;109313;1269;22518;-87
2023/06/05 08:52:17;;;;;;;5.40;2.70;;;;;;;24.52;35.11;97113.97;109560;1265;23122;-86
2023/06/05 08:54:48;;;;;;;5.20;2.90;;;;;;;24.27;35.08;97116.62;109545;1263;25654;-86
2023/06/05 08:57:21;;;;;;;4.30;2.50;;;;;;;24.03;35.52;97113.44;109537;1269;44705;-87
2023/06/05 08:59:53;;;;;;;4.70;2.70;;;;;;;24.06;35.91;97106.55;109507;1267;22521;-86
2023/06/05 09:02:24;;;;;;;4.10;2.30;;;;;;;24.25;36.30;97106.66;109533;1264;22634;-86
2023/06/05 09:04:57;;;;;;;5.20;2.70;;;;;;;24.13;35.57;97114.35;109575;1263;22561;-87
2023/06/05 09:07:31;;;;;;;5.30;2.80;;;;;;;23.74;35.60;97117.05;109503;1269;51675;-86
2023/06/05 09:10:04;;;;;;;4.50;2.70;;;;;;;23.57;36.24;97116.96;109298;1269;22554;-86
2023/06/05 09:12:55;;;;;;;5.00;3.00;;;;;;;23.65;36.64;97114.98;109527;1267;26563;-87
2023/06/05 09:15:28;;;;;;;5.90;2.80;;;;;;;23.69;36.17;97116.70;109561;1263;22515;-86
2023/06/05 09:18:12;;;;;;;3.90;2.40;;;;;;;23.68;37.04;97111.80;109545;1263;51115;-86
2023/06/05 09:20:45;;;;;;;3.40;2.60;;;;;;;23.86;37.36;97109.20;109547;1263;25288;-86
2023/06/05 09:23:27;;;;;;;4.60;2.60;;;;;;;23.80;36.63;97107.83;109512;1269;26901;-87
2023/06/05 09:26:01;;;;;;;5.10;2.60;;;;;;;23.45;36.60;97110.69;109521;1269;22522;-87
2023/06/05 09:28:33;;;;;;;4.30;2.70;;;;;;;23.15;36.63;97110.45;109442;1266;42109;-87
2023/06/05 09:31:05;;;;;;;8.00;2.80;;;;;;;22.98;37.22;97106.17;109573;1262;22507;-87
2023/06/05 09:33:37;;;;;;;7.30;3.00;;;;;;;23.00;36.97;97101.66;109559;1267;22553;-87
2023/06/05 09:36:11;;;;;;;5.30;2.60;;;;;;;23.06;37.82;97103.29;109614;1263;26504;-87
2023/06/05 09:38:45;;;;;;;4.10;2.60;;;;;;;23.18;37.59;97106.97;109517;1269;74330;-88
2023/06/05 09:41:18;;;;;;;3.80;2.50;;;;;;;23.05;37.58;97096.22;109558;1258;22510;-87
2023/06/05 09:43:50;;;;;;;4.90;3.00;;;;;;;23.14;38.27;97098.00;109489;1269;22500;-87
2023/06/05 09:46:22;;;;;;;4.40;2.90;;;;;;;23.29;38.12;97097.45;109427;1269;22512;-86
2023/06/05 09:49:00;;;;;;;6.40;2.90;;;;;;;23.35;37.87;97093.79;109496;1269;62353;-88
2023/06/05 09:51:32;;;;;;;4.00;2.50;;;;;;;23.33;37.83;97093.29;109580;1263;22501;-87
2023/06/05 09:54:08;;;;;;;6.10;3.10;;;;;;;23.16;37.13;97090.45;109305;1269;22560;-89
2023/06/05 09:56:42;;;;;;;3.80;2.50;;;;;;;22.94;37.53;97082.49;109509;1262;22504;-87
2023/06/05 09:59:20;;;;;;;5.00;2.40;;;;;;;22.94;38.53;97078.48;109490;1265;31940;-90
2023/06/05 10:01:56;;;;;;;4.10;2.60;;;;;;;23.06;38.09;97080.80;109581;1265;22530;-86
2023/06/05 10:04:30;;;;;;;3.30;2.20;;;;;;;23.09;38.05;97077.07;109532;1266;22508;-89
2023/06/05 10:07:09;;;;;;;3.60;2.30;;;;;;;23.16;38.37;97079.02;109471;1263;79949;-87
2023/06/05 10:09:44;;;;;;;4.50;2.60;;;;;;;22.98;37.83;97075.79;109576;1269;26421;-86
2023/06/05 10:12:18;;;;;;;3.10;2.50;;;;;;;22.98;38.84;97074.00;109545;1266;22560;-89
2023/06/05 10:14:56;;;;;;;4.80;2.80;;;;;;;23.13;38.60;97077.27;109355;1269;22539;-87
2023/06/05 10:17:28;;;;;;;5.10;3.00;;;;;;;23.20;38.41;97075.34;109502;1263;31243;-86
2023/06/05 10:20:03;;;;;;;3.60;2.90;;;;;;;23.34;38.87;97074.30;109583;1269;22576;-86
2023/06/05 10:22:37;;;;;;;4.90;3.10;;;;;;;23.51;39.20;97069.84;109586;1269;25489;-88
2023/06/05 10:25:12;;;;;;;6.00;3.00;;;;;;;23.63;39.16;97071.91;109549;1262;25410;-87
2023/06/05 10:28:05;;;;;;;4.70;3.00;;;;;;;23.46;38.38;97069.71;109555;1263;53617;-89
2023/06/05 10:31:11;;;;;;;4.10;3.30;;;;;;;23.34;38.47;97068.73;109623;1263;23040;-86
2023/06/05 10:33:58;;;;;;;4.10;2.80;;;;;;;23.39;38.58;97058.88;109558;1269;22566;-89
2023/06/05 10:36:44;;;;;;;3.90;2.70;;;;;;;23.42;39.16;97053.16;109599;1269;23776;-88
2023/06/05 10:39:18;;;;;;;5.30;2.90;;;;;;;23.50;39.09;97048.31;109289;1268;53216;-90
2023/06/05 10:41:53;;;;;;;3.30;2.60;;;;;;;23.50;39.68;97053.27;109560;1263;22550;-88
2023/06/05 10:44:41;;;;;;;5.00;2.80;;;;;;;23.64;40.05;97052.08;109497;1269;22589;-89
2023/06/05 10:47:56;;;;;;;5.50;3.00;;;;;;;23.79;39.88;97056.20;109524;1263;57097;-89
2023/06/05 10:50:33;;;;;;;4.20;2.70;;;;;;;23.89;39.69;97059.28;109473;1269;22523;-88
2023/06/05 10:53:08;;;;;;;6.70;2.70;;;;;;;23.96;39.58;97060.07;109492;1269;22552;-89
2023/06/05 10:55:45;;;;;;;6.60;3.40;;;;;;;23.97;39.81;97052.90;109556;1269;22507;-89
2023/06/05 10:58:17;;;;;;;5.50;2.80;;;;;;;24.07;40.11;97053.23;109429;1269;42975;-89
2023/06/05 11:01:19;;;;;;;4.20;2.60;;;;;;;24.13;39.71;97054.23;109610;1269;22520;-86
2023/06/05 11:04:01;;;;;;;2.80;2.30;;;;;;;24.12;39.21;97050.13;109558;1262;22523;-86
2023/06/05 11:06:32;;;;;;;6.20;3.00;;;;;;;24.11;38.96;97049.33;109576;1269;22556;-86
2023/06/05 11:09:13;;;;;;;5.20;2.90;;;;;;;24.08;39.24;97050.56;109486;1269;64223;-89
2023/06/05 11:12:02;;;;;;;4.20;2.80;;;;;;;24.03;38.82;97050.91;109510;1269;22523;-89
2023/06/05 11:14:49;;;;;;;6.10;3.20;;;;;;;23.90;39.31;97044.45;109528;1269;26920;-88
2023/06/05 11:17:32;;;;;;;4.50;2.40;;;;;;;24.00;39.34;97037.77;109438;1262;73393;-88
2023/06/05 11:20:10;;;;;;;5.30;2.90;;;;;;;24.01;39.34;97036.40;109563;1269;23052;-89
2023/06/05 11:23:10;;;;;;;4.50;3.10;;;;;;;24.04;40.43;97038.46;109573;1263;22546;-88
2023/06/05 11:25:47;;;;;;;5.40;2.80;;;;;;;24.10;40.59;97035.44;109508;1263;23270;-88
2023/06/05 11:28:40;;;;;;;4.10;3.00;;;;;;;24.12;40.34;97032.31;109385;1269;55362;-88
2023/06/05 11:31:13;;;;;;;5.50;3.00;;;;;;;24.22;40.49;97027.88;109556;1264;22509;-88
2023/06/05 11:33:45;;;;;;;4.00;2.60;;;;;;;24.29;40.27;97019.09;109539;1269;22522;-88
2023/06/05 11:36:24;;;;;;;3.40;2.70;;;;;;;24.32;40.19;97019.02;109479;1263;24015;-89
2023/06/05 11:39:01;;;;;;;4.70;3.20;;;;;;;24.37;40.25;97023.31;109459;1264;60341;-89
2023/06/05 11:41:33;;;;;;;6.80;2.80;;;;;;;24.42;40.17;97027.67;109538;1263;22504;-89
2023/06/05 11:44:05;;;;;;;5.40;3.30;;;;;;;24.31;39.06;97029.77;109575;1262;24218;-88
2023/06/05 11:46:41;;;;;;;4.50;2.90;;;;;;;24.12;38.69;97031.55;109591;1266;22594;-89
2023/06/05 11:49:27;;;;;;;5.20;3.10;;;;;;;24.12;39.33;97027.04;109508;1269;54695;-88
2023/06/05 11:52:00;;;;;;;5.10;2.80;;;;;;;24.20;39.29;97026.21;109584;1263;25799;-88
2023/06/05 11:54:40;;;;;;;4.20;2.90;;;;;;;24.23;39.91;97025.33;109634;1269;24443;-88
2023/06/05 11:57:13;;;;;;;6.00;3.40;;;;;;;24.24;39.87;97023.66;109502;1266;31831;-88
2023/06/05 11:59:48;;;;;;;4.90;3.00;;;;;;;24.24;40.18;97020.09;109455;1267;23588;-89
2023/06/05 12:02:26;;;;;;;4.50;3.10;;;;;;;24.06;39.31;97028.85;109543;1269;23920;-89
2023/06/05 12:04:58;;;;;;;4.60;2.40;;;;;;;23.87;38.84;97028.69;109556;1266;22531;-88
2023/06/05 12:07:36;;;;;;;4.90;2.90;;;;;;;23.76;39.12;97025.71;109574;1267;40044;-88
2023/06/05 12:10:10;;;;;;;5.40;3.00;;;;;;;23.80;40.10;97023.27;109557;1266;22505;-89
2023/06/05 12:12:55;;;;;;;7.30;3.50;;;;;;;23.90;39.98;97022.40;109584;1265;25355;-88
2023/06/05 12:15:27;;;;;;;3.80;2.80;;;;;;;23.91;39.51;97026.50;109549;1266;22519;-89
2023/06/05 12:18:00;;;;;;;3.60;3.10;;;;;;;23.83;39.76;97025.35;109501;1263;76479;-88
2023/06/05 12:20:40;;;;;;;5.10;2.90;;;;;;;23.78;39.85;97025.14;109530;1269;22516;-88
2023/06/05 12:23:22;;;;;;;4.30;2.80;;;;;;;23.74;39.45;97020.80;109558;1269;22517;-88
2023/06/05 12:26:03;;;;;;;5.00;3.00;;;;;;;23.69;40.21;97023.88;109527;1263;22536;-85
2023/06/05 12:28:36;;;;;;;4.30;3.10;;;;;;;23.70;40.30;97018.02;109542;1263;81675;-86
2023/06/05 12:31:08;;;;;;;4.40;2.90;;;;;;;23.56;39.72;97019.23;109612;1262;24210;-85
2023/06/05 12:33:50;;;;;;;5.60;3.10;;;;;;;23.41;40.22;97014.95;109586;1265;24212;-85
2023/06/05 12:36:22;;;;;;;4.60;3.10;;;;;;;23.32;40.51;97013.80;109588;1265;22531;-86
2023/06/05 12:38:54;;;;;;;3.50;2.40;;;;;;;23.25;40.43;97012.16;109509;1268;52784;-86
2023/06/05 12:41:26;;;;;;;4.30;3.00;;;;;;;23.13;40.16;97008.80;109607;1269;22519;-85
2023/06/05 12:44:06;;;;;;;5.30;3.10;;;;;;;23.02;40.11;97014.64;109573;1269;22616;-86
2023/06/05 12:46:39;;;;;;;4.10;2.90;;;;;;;22.94;40.65;97008.79;109583;1262;25659;-86
2023/06/05 12:49:13;;;;;;;5.00;3.20;;;;;;;22.94;40.86;97004.45;109498;1269;75341;-85
2023/06/05 12:51:45;;;;;;;8.10;3.00;;;;;;;22.91;40.79;97005.77;109555;1269;25555;-87
2023/06/05 12:54:19;;;;;;;4.80;2.70;;;;;;;22.90;41.07;97005.66;109539;1263;22509;-87
2023/06/05 12:56:50;;;;;;;5.50;3.00;;;;;;;22.89;41.01;97004.80;109626;1263;22516;-88
2023/06/05 12:59:22;;;;;;;4.80;3.30;;;;;;;22.90;41.09;96996.09;109541;1266;44346;-87
2023/06/05 13:01:56;;;;;;;4.10;2.60;;;;;;;22.90;41.45;96992.63;109552;1266;22504;-87
2023/06/05 13:04:28;;;;;;;4.40;2.80;;;;;;;22.89;41.68;96989.73;109588;1262;23871;-87
2023/06/05 13:07:01;;;;;;;4.30;2.90;;;;;;;22.95;42.01;96986.86;109520;1263;22509;-87